Briefing drone pour Gevrey-chambertin

Rechercher une autre localisation

Conditions de vol :


Nous sommes le : Mardi 13 avril 2021
Il est 15:50 UTC (17:50 LT)

Lever de soleil : 04:28 UTC (06:28 LT)
Coucher de soleil : 18:52 UTC (20:52 LT)

Météo

L'essentiel des conditions de vol

VIGILANCE MÉTÉO FRANCE - Côte-dOr (21)
Pas de vigilances particulieres
METAR de LFSD
LFSD 131530Z AUTO 04010KT 010V080 9999 FEW047 BKN072 BKN082 09/M01 Q1028

Date d'émission: 13/04/2021
Heure d'émission: 15:30 UTC
Vent: 040° (variable du 010° au 080°) pour 10 KT (19 km/h)
Visibilité horizontale: > 10 km
Plafond :
- Peu de nuages à 4700ft (1433m)
- Nuages morcelés à 7200ft (2195m)
- Nuages morcelés à 8200ft (2499m)
Température: 9 °C
Point de rosée: -1 °C
Humidité: 50%
Pression (QNH): 1028 hPa
TAF de LFSD
LFSD 010600Z 0100/0124 CNL

Conditions prévues :

Heure d'émission : Bulletin éffectué le 01 à 00:00 UTC
Prévision : Valide du 01 a 00:00 UTC au 01 a 23:59 UTC
Nuages : à 0ft (0 m)
WEBCAM POUR GEVREY-CHAMBERTIN

Réglementation

Voler en sécurité

CARTES AERONAUTIQUE 1/500.000
CARTES VAC (LFSD)
SUP AIP




Chargement des AIP...
NOTAM (GEVREY-CHAMBERTIN + Terrain à proximité / FIR )




Chargement des NOTAMS...
CONTACT PREFECTURE 21
Côte-dOr (21) : pref-drone@cote-dor.gouv.fr


Avertissement : Les données mises à disposition sont indicatives. Oxygène Drone ne pourra être tenu responsable de dégâts causés aux biens et aux personnes.